WetterOnline ( https://www.wetteronline.ch )

Wetter aktuell Stelzenberg

Aktuelles Wetter: Weinbiet/Pfalz (557m)

6-stündlich | Neueste Meldungen
Ortszeit Temperatur Wetter
Do, 22.10. 14:00 17.4° C wolkig
Do, 22.10. 8:00 13.0° C wolkig
Do, 22.10. 2:00 14.3° C bewölkt
Mi, 21.10. 20:00 16.1° C wolkig
Mi, 21.10. 14:00 16.3° C bewölkt
Mi, 21.10. 8:00 12.7° C leichter Regen
Mi, 21.10. 2:00 14.2° C bedeckt
Di, 20.10. 20:00 13.6° C bewölkt
Ortszeit Temperatur Wetter
Do, 22.10. 14:30 17.1° C bedeckt
Do, 22.10. 14:20 17.1° C bedeckt
Do, 22.10. 14:10 17.5° C bedeckt
Do, 22.10. 14:00 17.4° C wolkig
Do, 22.10. 13:50 17.4° C wolkig
Do, 22.10. 13:40 17.3° C wolkig
Do, 22.10. 13:30 16.6° C bewölkt
Do, 22.10. 13:00 15.8° C wolkig
Ortszeit Relative Feuchte Sichtweite
Do, 22.10. 14:00 62% 40 km
Do, 22.10. 8:00 73% 45 km
Do, 22.10. 2:00 72% 50 km
Mi, 21.10. 20:00 55% 40 km
Mi, 21.10. 14:00 48% >70 km
Mi, 21.10. 8:00 51% 65 km
Mi, 21.10. 2:00 55% >70 km
Di, 20.10. 20:00 65% 65 km
Ortszeit Relative Feuchte Sichtweite
Do, 22.10. 14:30 64% 45 km
Do, 22.10. 14:20 64% -
Do, 22.10. 14:10 62% -
Do, 22.10. 14:00 62% 40 km
Do, 22.10. 13:50 62% -
Do, 22.10. 13:40 63% -
Do, 22.10. 13:30 66% 35 km
Do, 22.10. 13:00 68% 45 km
Ortszeit Niederschlagsmenge Niederschlagsart
Do, 22.10. 14:00 0.0 l/m2 in 6 Std. -
Do, 22.10. 8:00 0.0 l/m2 in 12 Std. -
Do, 22.10. 2:00 0.0 l/m2 in 6 Std. -
Mi, 21.10. 20:00 0.1 l/m2 in 12 Std. -
Mi, 21.10. 14:00 0.1 l/m2 in 6 Std. Regen
Mi, 21.10. 8:00 0.1 l/m2 in 12 Std. Regen
Mi, 21.10. 2:00 0.1 l/m2 in 6 Std. Regen
Di, 20.10. 20:00 0.0 l/m2 in 12 Std. -
Ortszeit Niederschlagsmenge Niederschlagsart
Do, 22.10. 14:30 0.0 l/m2 in 1 Std. -
Do, 22.10. 14:20 keine Meldung -
Do, 22.10. 14:10 keine Meldung -
Do, 22.10. 14:00 0.0 l/m2 in 1 Std. -
Do, 22.10. 13:50 keine Meldung -
Do, 22.10. 13:40 keine Meldung -
Do, 22.10. 13:30 0.0 l/m2 in 1 Std. -
Do, 22.10. 13:00 0.0 l/m2 in 1 Std. -
Ortszeit Stärke Spitze Richtung
km/h Bft. km/h Grad Sektor
Do, 22.10. 14:00 22 4 43 210° SW
Do, 22.10. 8:00 25 4 47 240° SW
Do, 22.10. 2:00 29 5 65 240° SW
Mi, 21.10. 20:00 44 6 69 230° SW
Mi, 21.10. 14:00 26 4 48 220° SW
Mi, 21.10. 8:00 29 5 54 230° SW
Mi, 21.10. 2:00 26 4 50 160° S
Di, 20.10. 20:00 24 4 41 190° S
Ortszeit Stärke Spitze Richtung
km/h Bft. km/h Grad Sektor
Do, 22.10. 14:30 20 4 33 220° SW
Do, 22.10. 14:20 20 4 - 220° SW
Do, 22.10. 14:10 18 3 - 210° SW
Do, 22.10. 14:00 22 4 35 210° SW
Do, 22.10. 13:50 22 4 - 210° SW
Do, 22.10. 13:40 20 4 - 220° SW
Do, 22.10. 13:30 22 4 36 220° SW
Do, 22.10. 13:00 25 4 40 220° SW
Ortszeit Untergrenze Bedeckung Gattung
total tief tief mittel hoch
Do, 22.10. 14:00 2700 m 7/8 2/8 - - -
Do, 22.10. 8:00 1470 m 8/8 2/8 - - -
Do, 22.10. 2:00 3300 m 7/8 6/8 - - -
Mi, 21.10. 20:00 9000 m 7/8 0/8 - - -
Mi, 21.10. 14:00 2700 m 8/8 7/8 - - -
Mi, 21.10. 8:00 3000 m 7/8 7/8 - - -
Mi, 21.10. 2:00 3000 m 8/8 8/8 - - -
Di, 20.10. 20:00 2700 m 8/8 5/8 - - -
Ortszeit Bedeckungsgrad in Achtel und Wolkenuntergrenze
Do, 22.10. 14:30 8(6600m)
Do, 22.10. 14:20 8(6600m)
Do, 22.10. 14:10 8(6900m)
Do, 22.10. 14:00 2(2700m) 7(6900m) 7(8100m)
Do, 22.10. 13:50 2(2700m) 7(6900m) 7(8100m)
Do, 22.10. 13:40 3(2700m) 7(6000m) 7(6900m)
Do, 22.10. 13:30 1(3000m) 5(6900m) 8(8100m)
Do, 22.10. 13:00 8(7800m)
Ortszeit Luftdruck NN (hPa) Tendenz (hPa in 3 Std.)
Do, 22.10. 14:00 1015 - 0,8
Do, 22.10. 8:00 1015 + 0,4
Do, 22.10. 2:00 1013 + 1,3
Mi, 21.10. 20:00 1010 + 1,1
Mi, 21.10. 14:00 1009 - 0,3
Mi, 21.10. 8:00 1009 - 1,0
Mi, 21.10. 2:00 1010 - 1,3
Di, 20.10. 20:00 1014 + 0,6
Ortszeit Luftdruck NN (hPa) Tendenz (hPa in 3 Std.)
Do, 22.10. 14:30 1014 - 1,0
Do, 22.10. 14:20 1014 keine Meldung
Do, 22.10. 14:10 1014 keine Meldung
Do, 22.10. 14:00 1015 - 0,8
Do, 22.10. 13:50 1015 keine Meldung
Do, 22.10. 13:40 1015 keine Meldung
Do, 22.10. 13:30 1015 - 0,3
Do, 22.10. 13:00 1015 0,0
Ortszeit Schneehöhe (cm)
Do, 22.10. 14:00 0
Do, 22.10. 8:00 0
Do, 22.10. 2:00 0
Mi, 21.10. 20:00 0
Mi, 21.10. 14:00 0
Mi, 21.10. 8:00 0
Mi, 21.10. 2:00 0
Di, 20.10. 20:00 0
Ortszeit Schneehöhe (cm)
Do, 22.10. 14:30 0
Do, 22.10. 14:20 0
Do, 22.10. 14:10 0
Do, 22.10. 14:00 0
Do, 22.10. 13:50 0
Do, 22.10. 13:40 0
Do, 22.10. 13:30 0
Do, 22.10. 13:00 0
Link zu dieser Seite / Seite empfehlen

Das Wetter in ...